• Join FlightAware (Why Join?)
  • Login
  • US Flag 
Rudolph Flight #1: Arrived! 
07:03AM EST


 

Airport Tracker/Info


-or-


 

Live Flight TrackerFlight Track Log ✈ KAP17 ✈ 06-Jul-2013 ✈ KHPN - KLEB

Flight Track Log - Related Links

Times and Time Zones

All times are in EDT time to prevent confusion due to time zone crossing. See the KAP17 flight status page for this flight to view local times or setup timezone preferences in your user account.

Time Position Orientation Groundspeed Altitude Reporting Facility
EDT Latitude Longitude Course Direction KTS MPH feet Rate Location/Type
06:52PM 41.2964 -73.5700 22° Northeast 170 196 8,700  Level Boston Center
06:53PM 41.3281 -73.5236 48° Northeast 159 183 8,900 60 Climbing Boston Center
06:54PM 41.3619 -73.4744 47° Northeast 164 189 8,900  Level Boston Center
06:55PM 41.3978 -73.4253 46° Northeast 179 206 8,900  Level Boston Center
06:56PM 41.4231 -73.3925 44° Northeast 184 212 8,900  Level Boston Center
06:57PM 41.4736 -73.3294 43° Northeast 179 206 9,000  Climbing Boston Center
06:58PM 41.1021 -73.6891 22° Northeast  Level Estimated
06:58PM 41.5072 -73.2828 46° Northeast 174 200 9,000  Level Boston Center
06:59PM 41.5511 -73.2806 North 152 175 9,000 -60 Level Boston Center
07:00PM 41.5950 -73.2756 North 147 169 8,900  Descending Boston Center
07:01PM 41.6408 -73.2511 22° Northeast 159 183 9,000  Climbing Boston Center
07:02PM 41.6847 -73.2322 18° North 164 189 8,900 -60 Descending Boston Center
07:03PM 41.7225 -73.2161 18° North 164 189 8,900  Level Boston Center
07:04PM 41.7769 -73.1917 19° North 165 190 9,000  Climbing Boston Center
07:05PM 41.8125 -73.1756 19° North 164 189 8,900  Descending Boston Center
07:06PM 41.8625 -73.1536 18° North 164 189 9,000  Climbing Boston Center
07:07PM 41.9003 -73.1375 18° North 170 196 8,900  Descending Boston Center
07:08PM 41.9525 -73.1128 19° North 170 196 9,000  Climbing Boston Center
07:09PM 41.9964 -73.0881 23° Northeast 168 193 9,000  Level Boston Center
07:10PM 42.0381 -73.0692 19° North 191 220 9,000 -60 Level Boston Center
07:11PM 42.0758 -73.0497 21° North 178 205 8,900  Descending Boston Center
07:12PM 42.1239 -73.0278 19° North 167 192 9,000  Climbing Boston Center
07:13PM 42.1656 -73.0086 19° North 167 192 9,000  Level Boston Center
07:14PM 42.2136 -72.9867 19° North 167 192 9,000  Level Boston Center
07:15PM 42.2553 -72.9675 19° North 167 192 9,000  Level Boston Center
07:16PM 42.3033 -72.9425 21° North 167 192 9,000  Level Boston Center
07:17PM 42.3453 -72.9261 16° North 167 192 9,000  Level Boston Center
07:18PM 42.3911 -72.9011 22° Northeast 167 192 9,000  Level Boston Center
07:19PM 42.4328 -72.8817 19° North 167 192 9,000  Level Boston Center
07:20PM 42.4831 -72.8567 20° North 167 192 9,000  Level Boston Center
07:21PM 42.5228 -72.8372 20° North 167 192 9,000  Level Boston Center
07:22PM 42.5728 -72.8150 18° North 167 192 9,000  Level Boston Center
07:23PM 42.6208 -72.7956 17° North 167 192 9,000  Level Boston Center
07:24PM 42.6667 -72.7733 20° North 167 192 9,000  Level Boston Center
07:25PM 42.7125 -72.7539 17° North 167 192 9,000 -60 Level Boston Center
07:26PM 42.7522 -72.7342 20° North 167 192 8,900  Descending Boston Center
07:27PM 42.7981 -72.7117 20° North 167 192 9,000  Climbing Boston Center
07:28PM 42.8419 -72.6892 21° North 167 192 8,900  Descending Boston Center
07:29PM 42.8836 -72.6697 19° North 162 186 9,000  Climbing Boston Center
07:30PM 42.9297 -72.6472 20° North 162 186 8,900 -300 Descending Boston Center
07:31PM 42.9797 -72.6244 18° North 167 192 8,400 -660 Descending Boston Center
07:32PM 43.0275 -72.6019 19° North 172 198 7,600 -900 Descending Boston Center
07:33PM 43.0778 -72.5794 18° North 172 198 6,700 -840 Descending Boston Center
07:34PM 43.1256 -72.5567 19° North 172 198 6,000 -600 Descending Boston Center
07:35PM 43.1736 -72.5311 21° North 172 198 5,500 -540 Descending Boston Center
07:36PM 43.2214 -72.5083 19° North 172 198 5,000 -300 Descending Boston Center
07:37PM 43.2631 -72.4856 22° Northeast 166 191 5,000  Level Boston Center
07:38PM 43.3050 -72.4658 19° North 161 185 5,000  Level Boston Center
07:39PM 43.3467 -72.4431 22° Northeast 161 185 5,000  Level Boston Center